sensor_id;sensor_type;location;lat;lon;timestamp;pressure;altitude;pressure_sealevel;temperature;humidity
34500;BME280;20745;50.882;6.962;2022-12-19T00:01:18;101608.16;;;1.00;100.00
34500;BME280;20745;50.882;6.962;2022-12-19T00:04:06;101607.28;;;0.99;100.00
34500;BME280;20745;50.882;6.962;2022-12-19T00:06:58;101591.25;;;1.01;100.00
34500;BME280;20745;50.882;6.962;2022-12-19T00:09:45;101596.38;;;1.04;100.00
34500;BME280;20745;50.882;6.962;2022-12-19T00:12:31;101596.06;;;1.08;100.00
34500;BME280;20745;50.882;6.962;2022-12-19T00:15:18;101600.44;;;1.09;100.00
34500;BME280;20745;50.882;6.962;2022-12-19T00:18:05;101596.94;;;1.09;100.00
34500;BME280;20745;50.882;6.962;2022-12-19T00:20:55;101591.28;;;1.13;100.00
34500;BME280;20745;50.882;6.962;2022-12-19T00:23:43;101583.09;;;1.16;100.00
34500;BME280;20745;50.882;6.962;2022-12-19T00:26:31;101581.41;;;1.15;100.00
34500;BME280;20745;50.882;6.962;2022-12-19T00:29:18;101584.16;;;1.14;100.00
34500;BME280;20745;50.882;6.962;2022-12-19T00:32:04;101574.41;;;1.14;100.00
34500;BME280;20745;50.882;6.962;2022-12-19T00:34:51;101575.44;;;1.12;100.00
34500;BME280;20745;50.882;6.962;2022-12-19T00:37:38;101576.94;;;1.16;100.00
34500;BME280;20745;50.882;6.962;2022-12-19T00:40:35;101570.38;;;1.21;100.00
34500;BME280;20745;50.882;6.962;2022-12-19T00:43:21;101558.84;;;1.21;100.00
34500;BME280;20745;50.882;6.962;2022-12-19T00:46:09;101558.22;;;1.17;100.00
34500;BME280;20745;50.882;6.962;2022-12-19T00:48:56;101553.53;;;1.21;100.00
34500;BME280;20745;50.882;6.962;2022-12-19T00:51:43;101559.53;;;1.24;100.00
34500;BME280;20745;50.882;6.962;2022-12-19T00:54:30;101566.34;;;1.28;100.00
34500;BME280;20745;50.882;6.962;2022-12-19T00:57:18;101566.13;;;1.31;100.00
34500;BME280;20745;50.882;6.962;2022-12-19T01:00:06;101549.97;;;1.34;100.00
34500;BME280;20745;50.882;6.962;2022-12-19T01:02:53;101551.47;;;1.38;100.00
34500;BME280;20745;50.882;6.962;2022-12-19T01:05:40;101549.56;;;1.40;100.00
34500;BME280;20745;50.882;6.962;2022-12-19T01:08:28;101540.63;;;1.41;100.00
34500;BME280;20745;50.882;6.962;2022-12-19T01:11:16;101542.09;;;1.45;100.00
34500;BME280;20745;50.882;6.962;2022-12-19T01:14:03;101517.78;;;1.25;100.00
34500;BME280;20745;50.882;6.962;2022-12-19T01:16:50;101545.63;;;1.46;100.00
34500;BME280;20745;50.882;6.962;2022-12-19T01:19:37;101541.38;;;1.43;100.00
34500;BME280;20745;50.882;6.962;2022-12-19T01:22:30;101530.41;;;1.48;100.00
34500;BME280;20745;50.882;6.962;2022-12-19T01:25:17;101505.19;;;1.53;100.00
34500;BME280;20745;50.882;6.962;2022-12-19T01:28:05;101520.19;;;1.54;100.00
34500;BME280;20745;50.882;6.962;2022-12-19T01:30:52;101516.56;;;1.55;100.00
34500;BME280;20745;50.882;6.962;2022-12-19T01:33:39;101535.00;;;1.58;100.00
34500;BME280;20745;50.882;6.962;2022-12-19T01:36:29;101527.88;;;1.59;100.00
34500;BME280;20745;50.882;6.962;2022-12-19T01:39:26;101527.66;;;1.62;100.00
34500;BME280;20745;50.882;6.962;2022-12-19T01:42:17;101522.09;;;1.65;100.00
34500;BME280;20745;50.882;6.962;2022-12-19T01:50:53;101504.22;;;1.67;100.00
34500;BME280;20745;50.882;6.962;2022-12-19T01:53:50;101518.19;;;1.70;100.00
34500;BME280;20745;50.882;6.962;2022-12-19T01:56:40;101509.13;;;1.73;100.00
34500;BME280;20745;50.882;6.962;2022-12-19T02:05:23;101500.84;;;1.77;100.00
34500;BME280;20745;50.882;6.962;2022-12-19T02:08:11;101497.00;;;1.81;100.00
34500;BME280;20745;50.882;6.962;2022-12-19T02:10:59;101492.53;;;1.82;100.00
34500;BME280;20745;50.882;6.962;2022-12-19T02:13:45;101482.50;;;1.85;100.00
34500;BME280;20745;50.882;6.962;2022-12-19T02:33:54;101429.97;;;1.87;100.00
34500;BME280;20745;50.882;6.962;2022-12-19T02:36:51;101436.03;;;1.89;100.00
34500;BME280;20745;50.882;6.962;2022-12-19T02:39:44;101431.47;;;1.91;100.00
34500;BME280;20745;50.882;6.962;2022-12-19T02:42:34;101445.53;;;1.93;100.00
34500;BME280;20745;50.882;6.962;2022-12-19T02:45:23;101428.47;;;1.96;100.00
34500;BME280;20745;50.882;6.962;2022-12-19T02:48:14;101426.63;;;1.96;100.00
34500;BME280;20745;50.882;6.962;2022-12-19T02:51:05;101414.41;;;1.94;100.00
34500;BME280;20745;50.882;6.962;2022-12-19T02:53:51;101423.03;;;1.97;100.00
34500;BME280;20745;50.882;6.962;2022-12-19T02:57:43;101413.31;;;1.96;100.00
34500;BME280;20745;50.882;6.962;2022-12-19T03:00:11;101421.09;;;1.99;100.00
34500;BME280;20745;50.882;6.962;2022-12-19T03:03:20;101413.97;;;2.00;100.00
34500;BME280;20745;50.882;6.962;2022-12-19T03:06:22;101405.13;;;1.99;100.00
34500;BME280;20745;50.882;6.962;2022-12-19T03:12:06;101407.34;;;2.05;100.00
34500;BME280;20745;50.882;6.962;2022-12-19T03:14:59;101400.00;;;2.09;100.00
34500;BME280;20745;50.882;6.962;2022-12-19T03:17:46;101390.16;;;2.09;100.00
34500;BME280;20745;50.882;6.962;2022-12-19T03:20:46;101388.25;;;2.11;100.00
34500;BME280;20745;50.882;6.962;2022-12-19T03:23:34;101390.06;;;2.11;100.00
34500;BME280;20745;50.882;6.962;2022-12-19T03:26:21;101385.47;;;2.13;100.00
34500;BME280;20745;50.882;6.962;2022-12-19T03:29:20;101381.63;;;2.17;100.00
34500;BME280;20745;50.882;6.962;2022-12-19T03:32:11;101371.63;;;2.08;100.00
34500;BME280;20745;50.882;6.962;2022-12-19T03:35:02;101382.47;;;2.17;100.00
34500;BME280;20745;50.882;6.962;2022-12-19T03:37:49;101374.38;;;2.19;100.00
34500;BME280;20745;50.882;6.962;2022-12-19T03:40:38;101378.09;;;2.16;100.00
34500;BME280;20745;50.882;6.962;2022-12-19T03:43:26;101378.97;;;2.17;100.00
34500;BME280;20745;50.882;6.962;2022-12-19T03:46:19;101367.97;;;2.21;100.00
34500;BME280;20745;50.882;6.962;2022-12-19T03:49:08;101367.97;;;2.21;100.00
34500;BME280;20745;50.882;6.962;2022-12-19T03:55:00;101363.63;;;2.20;100.00
34500;BME280;20745;50.882;6.962;2022-12-19T03:57:52;101353.88;;;2.19;100.00
34500;BME280;20745;50.882;6.962;2022-12-19T04:00:42;101343.00;;;2.22;100.00
34500;BME280;20745;50.882;6.962;2022-12-19T04:03:34;101351.13;;;2.21;100.00
34500;BME280;20745;50.882;6.962;2022-12-19T04:06:21;101347.50;;;2.22;100.00
34500;BME280;20745;50.882;6.962;2022-12-19T04:09:08;101337.69;;;2.22;100.00
34500;BME280;20745;50.882;6.962;2022-12-19T04:11:59;101338.66;;;2.21;100.00
34500;BME280;20745;50.882;6.962;2022-12-19T04:14:47;101333.81;;;2.26;100.00
34500;BME280;20745;50.882;6.962;2022-12-19T04:17:39;101337.22;;;2.28;100.00
34500;BME280;20745;50.882;6.962;2022-12-19T04:20:28;101331.91;;;2.28;100.00
34500;BME280;20745;50.882;6.962;2022-12-19T04:23:17;101337.97;;;2.30;100.00
34500;BME280;20745;50.882;6.962;2022-12-19T04:26:07;101342.97;;;2.35;100.00
34500;BME280;20745;50.882;6.962;2022-12-19T04:28:56;101339.34;;;2.36;100.00
34500;BME280;20745;50.882;6.962;2022-12-19T04:31:44;101358.09;;;2.34;100.00
34500;BME280;20745;50.882;6.962;2022-12-19T04:34:33;101351.81;;;2.35;100.00
34500;BME280;20745;50.882;6.962;2022-12-19T04:37:26;101342.97;;;2.35;100.00
34500;BME280;20745;50.882;6.962;2022-12-19T04:40:13;101351.69;;;2.37;100.00
34500;BME280;20745;50.882;6.962;2022-12-19T04:43:00;101353.38;;;2.38;100.00
34500;BME280;20745;50.882;6.962;2022-12-19T04:45:47;101349.78;;;2.39;100.00
34500;BME280;20745;50.882;6.962;2022-12-19T04:48:39;101357.66;;;2.40;100.00
34500;BME280;20745;50.882;6.962;2022-12-19T04:51:28;101348.69;;;2.41;100.00
34500;BME280;20745;50.882;6.962;2022-12-19T04:54:15;101342.59;;;2.39;100.00
34500;BME280;20745;50.882;6.962;2022-12-19T04:57:03;101351.34;;;2.41;100.00
34500;BME280;20745;50.882;6.962;2022-12-19T04:59:50;101343.13;;;2.44;100.00
34500;BME280;20745;50.882;6.962;2022-12-19T05:02:37;101328.81;;;2.45;100.00
34500;BME280;20745;50.882;6.962;2022-12-19T05:05:25;101327.84;;;2.46;100.00
34500;BME280;20745;50.882;6.962;2022-12-19T05:08:12;101344.81;;;2.45;100.00
34500;BME280;20745;50.882;6.962;2022-12-19T05:11:00;101343.72;;;2.48;100.00
34500;BME280;20745;50.882;6.962;2022-12-19T05:13:47;101347.16;;;2.50;100.00
34500;BME280;20745;50.882;6.962;2022-12-19T05:16:35;101339.03;;;2.51;100.00
34500;BME280;20745;50.882;6.962;2022-12-19T05:19:22;101333.69;;;2.51;100.00
34500;BME280;20745;50.882;6.962;2022-12-19T05:22:08;101322.81;;;2.54;100.00
34500;BME280;20745;50.882;6.962;2022-12-19T05:24:55;101332.38;;;2.57;100.00
34500;BME280;20745;50.882;6.962;2022-12-19T05:27:43;101326.22;;;2.57;100.00
34500;BME280;20745;50.882;6.962;2022-12-19T05:30:30;101319.69;;;2.61;100.00
34500;BME280;20745;50.882;6.962;2022-12-19T05:33:17;101315.19;;;2.61;100.00
34500;BME280;20745;50.882;6.962;2022-12-19T05:36:04;101316.69;;;2.65;100.00
34500;BME280;20745;50.882;6.962;2022-12-19T05:38:50;101316.56;;;2.67;100.00
34500;BME280;20745;50.882;6.962;2022-12-19T05:41:37;101315.47;;;2.69;100.00
34500;BME280;20745;50.882;6.962;2022-12-19T05:44:24;101314.25;;;2.73;100.00
34500;BME280;20745;50.882;6.962;2022-12-19T05:47:11;101318.50;;;2.76;100.00
34500;BME280;20745;50.882;6.962;2022-12-19T05:49:58;101330.03;;;2.76;100.00
34500;BME280;20745;50.882;6.962;2022-12-19T05:52:45;101322.41;;;2.83;100.00
34500;BME280;20745;50.882;6.962;2022-12-19T05:55:31;101324.13;;;2.84;100.00
34500;BME280;20745;50.882;6.962;2022-12-19T05:58:18;101316.81;;;2.86;100.00
34500;BME280;20745;50.882;6.962;2022-12-19T06:01:06;101324.47;;;2.90;100.00
34500;BME280;20745;50.882;6.962;2022-12-19T06:03:53;101325.34;;;2.91;100.00
34500;BME280;20745;50.882;6.962;2022-12-19T06:06:40;101337.69;;;2.92;100.00
34500;BME280;20745;50.882;6.962;2022-12-19T06:09:27;101338.06;;;2.98;100.00
34500;BME280;20745;50.882;6.962;2022-12-19T06:12:14;101337.94;;;3.00;100.00
34500;BME280;20745;50.882;6.962;2022-12-19T06:15:01;101337.72;;;3.03;100.00
34500;BME280;20745;50.882;6.962;2022-12-19T06:17:51;101336.53;;;3.07;100.00
34500;BME280;20745;50.882;6.962;2022-12-19T06:20:38;101340.53;;;3.12;100.00
34500;BME280;20745;50.882;6.962;2022-12-19T06:23:25;101330.69;;;3.13;100.00
34500;BME280;20745;50.882;6.962;2022-12-19T06:26:14;101332.19;;;3.17;100.00
34500;BME280;20745;50.882;6.962;2022-12-19T06:29:05;101340.19;;;3.17;100.00
34500;BME280;20745;50.882;6.962;2022-12-19T06:31:52;101337.25;;;3.20;100.00
34500;BME280;20745;50.882;6.962;2022-12-19T06:34:39;101342.59;;;3.20;100.00
34500;BME280;20745;50.882;6.962;2022-12-19T06:37:47;101335.94;;;3.25;100.00
34500;BME280;20745;50.882;6.962;2022-12-19T06:40:39;101331.19;;;3.29;100.00
34500;BME280;20745;50.882;6.962;2022-12-19T06:43:48;101331.19;;;3.29;100.00
34500;BME280;20745;50.882;6.962;2022-12-19T06:46:39;101332.88;;;3.30;100.00
34500;BME280;20745;50.882;6.962;2022-12-19T06:49:27;101332.88;;;3.30;100.00
34500;BME280;20745;50.882;6.962;2022-12-19T06:52:14;101329.03;;;3.34;100.00
34500;BME280;20745;50.882;6.962;2022-12-19T06:55:05;101325.38;;;3.35;100.00
34500;BME280;20745;50.882;6.962;2022-12-19T06:57:52;101345.53;;;3.39;100.00
34500;BME280;20745;50.882;6.962;2022-12-19T07:00:40;101343.72;;;3.39;100.00
34500;BME280;20745;50.882;6.962;2022-12-19T07:03:45;101341.88;;;3.40;100.00
34500;BME280;20745;50.882;6.962;2022-12-19T07:06:33;101341.53;;;3.44;100.00
34500;BME280;20745;50.882;6.962;2022-12-19T07:09:20;101346.75;;;3.46;100.00
34500;BME280;20745;50.882;6.962;2022-12-19T07:12:07;101351.97;;;3.47;100.00
34500;BME280;20745;50.882;6.962;2022-12-19T07:14:54;101357.06;;;3.50;100.00
34500;BME280;20745;50.882;6.962;2022-12-19T07:17:41;101355.25;;;3.51;100.00
34500;BME280;20745;50.882;6.962;2022-12-19T07:20:28;101360.34;;;3.54;100.00
34500;BME280;20745;50.882;6.962;2022-12-19T07:23:17;101356.72;;;3.55;100.00
34500;BME280;20745;50.882;6.962;2022-12-19T07:26:06;101355.59;;;3.57;100.00
34500;BME280;20745;50.882;6.962;2022-12-19T07:28:55;101361.56;;;3.61;100.00
34500;BME280;20745;50.882;6.962;2022-12-19T07:31:43;101358.91;;;3.61;100.00
34500;BME280;20745;50.882;6.962;2022-12-19T07:34:30;101371.16;;;3.63;100.00
34500;BME280;20745;50.882;6.962;2022-12-19T07:37:19;101364.00;;;3.64;100.00
34500;BME280;20745;50.882;6.962;2022-12-19T07:40:07;101370.06;;;3.66;100.00
34500;BME280;20745;50.882;6.962;2022-12-19T07:42:53;101373.47;;;3.68;100.00
34500;BME280;20745;50.882;6.962;2022-12-19T07:45:40;101362.78;;;3.68;100.00
34500;BME280;20745;50.882;6.962;2022-12-19T07:48:29;101363.47;;;3.70;100.00
34500;BME280;20745;50.882;6.962;2022-12-19T07:51:16;101353.53;;;3.72;100.00
34500;BME280;20745;50.882;6.962;2022-12-19T07:54:03;101341.03;;;3.72;100.00
34500;BME280;20745;50.882;6.962;2022-12-19T07:56:49;101342.50;;;3.76;100.00
34500;BME280;20745;50.882;6.962;2022-12-19T07:59:36;101341.50;;;3.77;100.00
34500;BME280;20745;50.882;6.962;2022-12-19T08:02:25;101338.59;;;3.80;100.00
34500;BME280;20745;50.882;6.962;2022-12-19T08:05:13;101343.81;;;3.82;100.00
34500;BME280;20745;50.882;6.962;2022-12-19T08:08:00;101343.56;;;3.85;100.00
34500;BME280;20745;50.882;6.962;2022-12-19T08:10:49;101333.88;;;3.84;100.00
34500;BME280;20745;50.882;6.962;2022-12-19T08:13:35;101335.31;;;3.88;100.00
34500;BME280;20745;50.882;6.962;2022-12-19T08:16:31;101332.50;;;3.89;100.00
34500;BME280;20745;50.882;6.962;2022-12-19T08:19:38;101328.03;;;3.90;100.00
34500;BME280;20745;50.882;6.962;2022-12-19T08:22:25;101332.41;;;3.91;100.00
34500;BME280;20745;50.882;6.962;2022-12-19T08:25:13;101339.31;;;3.93;100.00
34500;BME280;20745;50.882;6.962;2022-12-19T08:28:00;101346.94;;;3.98;100.00
34500;BME280;20745;50.882;6.962;2022-12-19T08:30:49;101346.59;;;4.02;100.00
34500;BME280;20745;50.882;6.962;2022-12-19T08:33:36;101348.16;;;4.05;100.00
34500;BME280;20745;50.882;6.962;2022-12-19T08:36:22;101355.06;;;4.07;100.00
34500;BME280;20745;50.882;6.962;2022-12-19T08:39:10;101355.69;;;4.11;100.00
34500;BME280;20745;50.882;6.962;2022-12-19T08:41:57;101354.56;;;4.13;100.00
34500;BME280;20745;50.882;6.962;2022-12-19T08:44:44;101349.97;;;4.15;100.00
34500;BME280;20745;50.882;6.962;2022-12-19T08:47:30;101349.97;;;4.15;100.00
34500;BME280;20745;50.882;6.962;2022-12-19T08:50:17;101359.41;;;4.19;100.00
34500;BME280;20745;50.882;6.962;2022-12-19T08:53:06;101359.28;;;4.21;100.00
34500;BME280;20745;50.882;6.962;2022-12-19T08:55:59;101354.53;;;4.24;100.00
34500;BME280;20745;50.882;6.962;2022-12-19T08:58:49;101352.47;;;4.28;100.00
34500;BME280;20745;50.882;6.962;2022-12-19T09:01:36;101348.69;;;4.30;100.00
34500;BME280;20745;50.882;6.962;2022-12-19T09:04:24;101353.06;;;4.31;100.00
34500;BME280;20745;50.882;6.962;2022-12-19T09:07:31;101349.31;;;4.34;100.00
34500;BME280;20745;50.882;6.962;2022-12-19T09:10:24;101350.72;;;4.38;100.00
34500;BME280;20745;50.882;6.962;2022-12-19T09:13:13;101345.13;;;4.41;100.00
34500;BME280;20745;50.882;6.962;2022-12-19T09:16:04;101344.88;;;4.44;100.00
34500;BME280;20745;50.882;6.962;2022-12-19T09:18:52;101354.59;;;4.45;100.00
34500;BME280;20745;50.882;6.962;2022-12-19T09:21:42;101352.78;;;4.45;100.00
34500;BME280;20745;50.882;6.962;2022-12-19T09:24:28;101331.25;;;4.47;100.00
34500;BME280;20745;50.882;6.962;2022-12-19T09:27:15;101315.47;;;4.44;100.00
34500;BME280;20745;50.882;6.962;2022-12-19T09:30:03;101324.00;;;4.38;100.00
34500;BME280;20745;50.882;6.962;2022-12-19T09:32:52;101329.91;;;4.41;100.00
34500;BME280;20745;50.882;6.962;2022-12-19T09:35:38;101332.75;;;4.40;100.00
34500;BME280;20745;50.882;6.962;2022-12-19T09:38:26;101341.47;;;4.42;100.00
34500;BME280;20745;50.882;6.962;2022-12-19T09:47:03;101340.03;;;4.38;100.00
34500;BME280;20745;50.882;6.962;2022-12-19T09:53:36;101337.25;;;4.39;100.00
34500;BME280;20745;50.882;6.962;2022-12-19T09:56:27;101318.66;;;4.38;100.00
34500;BME280;20745;50.882;6.962;2022-12-19T09:59:18;101324.00;;;4.38;100.00
34500;BME280;20745;50.882;6.962;2022-12-19T10:02:37;101324.25;;;4.35;100.00
34500;BME280;20745;50.882;6.962;2022-12-19T10:05:41;101331.53;;;4.33;100.00
34500;BME280;20745;50.882;6.962;2022-12-19T10:08:49;101328.72;;;4.34;100.00
34500;BME280;20745;50.882;6.962;2022-12-19T10:12:13;101332.16;;;4.36;100.00
34500;BME280;20745;50.882;6.962;2022-12-19T10:15:28;101328.47;;;4.37;100.00
34500;BME280;20745;50.882;6.962;2022-12-19T10:18:25;101320.94;;;4.42;100.00
34500;BME280;20745;50.882;6.962;2022-12-19T10:24:44;101328.59;;;4.47;100.00
34500;BME280;20745;50.882;6.962;2022-12-19T10:34:16;101304.25;;;4.50;100.00
34500;BME280;20745;50.882;6.962;2022-12-19T10:37:16;101310.78;;;4.57;100.00
34500;BME280;20745;50.882;6.962;2022-12-19T10:40:25;101298.84;;;4.61;100.00
34500;BME280;20745;50.882;6.962;2022-12-19T10:46:42;101297.78;;;4.73;100.00
34500;BME280;20745;50.882;6.962;2022-12-19T10:53:54;101284.38;;;4.84;100.00
34500;BME280;20745;50.882;6.962;2022-12-19T11:00:44;101304.44;;;4.99;100.00
34500;BME280;20745;50.882;6.962;2022-12-19T11:11:12;101303.41;;;5.11;100.00
34500;BME280;20745;50.882;6.962;2022-12-19T11:14:29;101279.56;;;5.08;100.00
34500;BME280;20745;50.882;6.962;2022-12-19T11:17:36;101265.31;;;5.07;100.00
34500;BME280;20745;50.882;6.962;2022-12-19T11:20:59;101274.22;;;5.08;100.00
34500;BME280;20745;50.882;6.962;2022-12-19T11:24:10;101278.59;;;5.09;100.00
34500;BME280;20745;50.882;6.962;2022-12-19T11:30:43;101287.88;;;5.05;100.00
34500;BME280;20745;50.882;6.962;2022-12-19T11:34:04;101294.63;;;5.09;100.00
34500;BME280;20745;50.882;6.962;2022-12-19T11:39:57;101312.44;;;5.10;100.00
34500;BME280;20745;50.882;6.962;2022-12-19T11:42:51;101306.81;;;5.13;100.00
34500;BME280;20745;50.882;6.962;2022-12-19T11:48:53;101318.59;;;5.31;100.00
34500;BME280;20745;50.882;6.962;2022-12-19T11:51:46;101312.50;;;5.29;100.00
34500;BME280;20745;50.882;6.962;2022-12-19T11:57:41;101315.13;;;5.40;100.00
34500;BME280;20745;50.882;6.962;2022-12-19T12:00:28;101309.75;;;5.40;100.00
34500;BME280;20745;50.882;6.962;2022-12-19T12:06:21;101301.47;;;5.43;100.00
34500;BME280;20745;50.882;6.962;2022-12-19T12:09:24;101295.25;;;5.43;100.00
34500;BME280;20745;50.882;6.962;2022-12-19T12:16:00;101268.84;;;5.38;100.00
34500;BME280;20745;50.882;6.962;2022-12-19T12:19:18;101263.78;;;5.35;100.00
34500;BME280;20745;50.882;6.962;2022-12-19T12:29:16;101237.31;;;5.42;100.00
34500;BME280;20745;50.882;6.962;2022-12-19T12:35:37;101198.47;;;5.27;100.00
34500;BME280;20745;50.882;6.962;2022-12-19T12:41:54;101250.44;;;5.54;100.00
34500;BME280;20745;50.882;6.962;2022-12-19T12:44:52;101251.72;;;5.60;100.00
34500;BME280;20745;50.882;6.962;2022-12-19T12:47:40;101245.25;;;5.62;100.00
34500;BME280;20745;50.882;6.962;2022-12-19T12:50:28;101244.41;;;5.62;100.00
34500;BME280;20745;50.882;6.962;2022-12-19T12:53:17;101241.16;;;5.68;100.00
34500;BME280;20745;50.882;6.962;2022-12-19T12:56:09;101231.75;;;5.73;100.00
34500;BME280;20745;50.882;6.962;2022-12-19T13:01:52;101240.47;;;5.75;100.00
34500;BME280;20745;50.882;6.962;2022-12-19T13:04:41;101229.50;;;5.78;100.00
34500;BME280;20745;50.882;6.962;2022-12-19T13:08:22;101223.25;;;5.78;100.00
34500;BME280;20745;50.882;6.962;2022-12-19T13:10:38;101235.31;;;5.83;100.00
34500;BME280;20745;50.882;6.962;2022-12-19T13:13:56;101223.88;;;5.81;100.00
34500;BME280;20745;50.882;6.962;2022-12-19T13:19:32;101227.53;;;5.80;100.00
34500;BME280;20745;50.882;6.962;2022-12-19T13:22:20;101224.84;;;5.80;100.00
34500;BME280;20745;50.882;6.962;2022-12-19T13:28:14;101225.56;;;5.82;100.00
34500;BME280;20745;50.882;6.962;2022-12-19T13:34:13;101210.72;;;5.78;100.00
34500;BME280;20745;50.882;6.962;2022-12-19T13:37:48;101209.03;;;5.77;100.00
34500;BME280;20745;50.882;6.962;2022-12-19T13:43:40;101208.47;;;5.74;100.00
34500;BME280;20745;50.882;6.962;2022-12-19T13:49:22;101211.59;;;5.79;100.00
34500;BME280;20745;50.882;6.962;2022-12-19T13:52:15;101214.25;;;5.79;100.00
34500;BME280;20745;50.882;6.962;2022-12-19T13:55:02;101211.44;;;5.80;100.00
34500;BME280;20745;50.882;6.962;2022-12-19T13:57:52;101224.97;;;5.79;100.00
34500;BME280;20745;50.882;6.962;2022-12-19T14:00:40;101222.06;;;5.82;100.00
34500;BME280;20745;50.882;6.962;2022-12-19T14:03:45;101214.84;;;5.82;100.00
34500;BME280;20745;50.882;6.962;2022-12-19T14:06:40;101211.44;;;5.80;100.00
34500;BME280;20745;50.882;6.962;2022-12-19T14:12:37;101184.66;;;5.80;100.00
34500;BME280;20745;50.882;6.962;2022-12-19T14:16:04;101189.91;;;5.82;100.00
34500;BME280;20745;50.882;6.962;2022-12-19T14:18:51;101171.81;;;5.84;100.00
34500;BME280;20745;50.882;6.962;2022-12-19T14:21:43;101175.50;;;5.83;100.00
34500;BME280;20745;50.882;6.962;2022-12-19T14:27:44;101166.47;;;5.84;100.00
34500;BME280;20745;50.882;6.962;2022-12-19T14:30:53;101167.19;;;5.86;100.00
34500;BME280;20745;50.882;6.962;2022-12-19T14:33:43;101171.28;;;5.90;100.00
34500;BME280;20745;50.882;6.962;2022-12-19T14:36:52;101165.78;;;5.91;100.00
34500;BME280;20745;50.882;6.962;2022-12-19T14:39:39;101169.16;;;5.93;100.00
34500;BME280;20745;50.882;6.962;2022-12-19T14:42:26;101174.06;;;5.98;100.00
34500;BME280;20745;50.882;6.962;2022-12-19T14:45:52;101177.19;;;6.03;100.00
34500;BME280;20745;50.882;6.962;2022-12-19T14:48:59;101171.69;;;6.04;100.00
34500;BME280;20745;50.882;6.962;2022-12-19T14:52:31;101180.44;;;6.06;100.00
34500;BME280;20745;50.882;6.962;2022-12-19T14:55:38;101173.97;;;6.09;100.00
34500;BME280;20745;50.882;6.962;2022-12-19T14:58:52;101161.22;;;6.11;100.00
34500;BME280;20745;50.882;6.962;2022-12-19T15:01:48;101143.31;;;6.11;100.00
34500;BME280;20745;50.882;6.962;2022-12-19T15:05:19;101146.72;;;6.13;100.00
34500;BME280;20745;50.882;6.962;2022-12-19T15:07:48;101131.59;;;6.12;100.00
34500;BME280;20745;50.882;6.962;2022-12-19T15:10:35;101135.28;;;6.11;100.00
34500;BME280;20745;50.882;6.962;2022-12-19T15:13:49;101120.88;;;6.12;100.00
34500;BME280;20745;50.882;6.962;2022-12-19T15:17:03;101130.31;;;6.16;100.00
34500;BME280;20745;50.882;6.962;2022-12-19T15:19:50;101134.44;;;6.20;100.00
34500;BME280;20745;50.882;6.962;2022-12-19T15:22:39;101144.00;;;6.23;100.00
34500;BME280;20745;50.882;6.962;2022-12-19T15:25:26;101156.28;;;6.25;100.00
34500;BME280;20745;50.882;6.962;2022-12-19T15:28:35;101153.19;;;6.30;100.00
34500;BME280;20745;50.882;6.962;2022-12-19T15:31:32;101143.69;;;6.35;100.00
34500;BME280;20745;50.882;6.962;2022-12-19T15:37:29;101128.28;;;6.47;100.00
34500;BME280;20745;50.882;6.962;2022-12-19T15:40:16;101113.72;;;6.49;100.00
34500;BME280;20745;50.882;6.962;2022-12-19T15:43:03;101122.47;;;6.51;100.00
34500;BME280;20745;50.882;6.962;2022-12-19T15:45:56;101111.75;;;6.51;100.00
34500;BME280;20745;50.882;6.962;2022-12-19T15:48:47;101114.59;;;6.50;100.00
34500;BME280;20745;50.882;6.962;2022-12-19T15:51:35;101110.22;;;6.49;100.00
34500;BME280;20745;50.882;6.962;2022-12-19T15:54:22;101101.31;;;6.48;100.00
34500;BME280;20745;50.882;6.962;2022-12-19T15:57:33;101124.47;;;6.49;100.00
34500;BME280;20745;50.882;6.962;2022-12-19T16:00:21;101124.59;;;6.48;100.00
34500;BME280;20745;50.882;6.962;2022-12-19T16:03:11;101135.50;;;6.46;100.00
34500;BME280;20745;50.882;6.962;2022-12-19T16:06:13;101129.28;;;6.46;100.00
34500;BME280;20745;50.882;6.962;2022-12-19T16:09:00;101121.22;;;6.46;100.00
34500;BME280;20745;50.882;6.962;2022-12-19T16:11:47;101133.78;;;6.45;100.00
34500;BME280;20745;50.882;6.962;2022-12-19T16:14:34;101129.28;;;6.46;100.00
34500;BME280;20745;50.882;6.962;2022-12-19T16:17:22;101121.91;;;6.48;100.00
34500;BME280;20745;50.882;6.962;2022-12-19T16:20:17;101117.25;;;6.50;100.00
34500;BME280;20745;50.882;6.962;2022-12-19T16:23:05;101111.75;;;6.51;100.00
34500;BME280;20745;50.882;6.962;2022-12-19T16:25:52;101098.34;;;6.51;100.00
34500;BME280;20745;50.882;6.962;2022-12-19T16:28:39;101105.38;;;6.52;100.00
34500;BME280;20745;50.882;6.962;2022-12-19T16:31:26;101092.81;;;6.53;100.00
34500;BME280;20745;50.882;6.962;2022-12-19T16:34:17;101105.25;;;6.54;100.00
34500;BME280;20745;50.882;6.962;2022-12-19T16:37:04;101113.16;;;6.55;100.00
34500;BME280;20745;50.882;6.962;2022-12-19T16:39:51;101111.47;;;6.54;100.00
34500;BME280;20745;50.882;6.962;2022-12-19T16:42:38;101112.19;;;6.56;100.00
34500;BME280;20745;50.882;6.962;2022-12-19T16:45:25;101101.44;;;6.56;100.00
34500;BME280;20745;50.882;6.962;2022-12-19T16:48:18;101109.50;;;6.56;100.00
34500;BME280;20745;50.882;6.962;2022-12-19T16:51:07;101115.81;;;6.55;100.00
34500;BME280;20745;50.882;6.962;2022-12-19T16:54:01;101132.78;;;6.56;100.00
34500;BME280;20745;50.882;6.962;2022-12-19T16:56:48;101151.13;;;6.60;100.00
34500;BME280;20745;50.882;6.962;2022-12-19T16:59:36;101151.81;;;6.62;100.00
34500;BME280;20745;50.882;6.962;2022-12-19T17:02:29;101170.47;;;6.64;100.00
34500;BME280;20745;50.882;6.962;2022-12-19T17:05:22;101173.72;;;6.67;100.00
34500;BME280;20745;50.882;6.962;2022-12-19T17:08:10;101170.31;;;6.65;100.00
34500;BME280;20745;50.882;6.962;2022-12-19T17:10:58;101163.66;;;6.69;100.00
34500;BME280;20745;50.882;6.962;2022-12-19T17:13:44;101161.69;;;6.71;100.00